Searunner — 9HA4462 — position and weather

sailwx.info

Track history (hours):
 
Tides and Currents Weather Stations Pressure Air Temp Water Temp Dewpoint Dewpoint Depression Visibility Wind Speed Wind Dir Waves Ship Positions

Searunner

Last reported at 2018-Aug-15 08:18 UTC. Time now 2018-Aug-17 11:43 UTC.
Position N 01°28' E 104°33'.

Length 250 m; draft 12.4 m.

Type: Tanker. MMSI: 249986000.

Date/timePositionNaut miles runAvg speedWind from/ knotsBaromVisibWave heightAir tempDewpointWater temp
2018-Aug-15 08:18N 01°28' E 104°33'412.4
2018-Aug-15 07:57N 01°26' E 104°30'712.1
2018-Aug-15 07:22N 01°21' E 104°24'512.1
2018-Aug-15 06:56N 01°18' E 104°20'511.3
2018-Aug-15 06:29N 01°16' E 104°16'612.1
2018-Aug-15 05:57N 01°15' E 104°09'512.0
2018-Aug-15 05:30N 01°15' E 104°04'610.8
2018-Aug-15 04:59N 01°14' E 103°58'611.8
2018-Aug-15 04:30N 01°12' E 103°53'510.8
2018-Aug-15 04:00N 01°10' E 103°48'612.4
2018-Aug-15 03:30N 01°05' E 103°44'510.5
2018-Aug-15 02:59N 01°03' E 103°39'5 9.6
2018-Aug-15 02:31N 01°05' E 103°35'610.9
2018-Aug-15 01:57N 01°08' E 103°30'510.5
2018-Aug-15 01:30N 01°11' E 103°26'610.9
2018-Aug-15 01:00N 01°14' E 103°21'510.4
2018-Aug-15 00:28N 01°17' E 103°17'610.8
2018-Aug-14 23:57N 01°21' E 103°13'  
Track history (hours):
 
Tides and Currents Weather Stations Pressure Air Temp Water Temp Dewpoint Dewpoint Depression Visibility Wind Speed Wind Dir Waves Ship Positions

Searunner

Last reported at 2018-Aug-15 08:18 UTC. Time now 2018-Aug-17 11:43 UTC.
Position N 01°28' E 104°33'.

Length 250 m; draft 12.4 m.

Type: Tanker. MMSI: 249986000.

Date/timePositionNaut miles runAvg speedWind from/ knotsBaromVisibWave heightAir tempDewpointWater temp
2018-Aug-15 08:18N 01°28' E 104°33'412.4
2018-Aug-15 07:57N 01°26' E 104°30'712.1
2018-Aug-15 07:22N 01°21' E 104°24'512.1
2018-Aug-15 06:56N 01°18' E 104°20'511.3
2018-Aug-15 06:29N 01°16' E 104°16'612.1
2018-Aug-15 05:57N 01°15' E 104°09'512.0
2018-Aug-15 05:30N 01°15' E 104°04'610.8
2018-Aug-15 04:59N 01°14' E 103°58'611.8
2018-Aug-15 04:30N 01°12' E 103°53'510.8
2018-Aug-15 04:00N 01°10' E 103°48'612.4
2018-Aug-15 03:30N 01°05' E 103°44'510.5
2018-Aug-15 02:59N 01°03' E 103°39'5 9.6
2018-Aug-15 02:31N 01°05' E 103°35'610.9
2018-Aug-15 01:57N 01°08' E 103°30'510.5
2018-Aug-15 01:30N 01°11' E 103°26'610.9
2018-Aug-15 01:00N 01°14' E 103°21'510.4
2018-Aug-15 00:28N 01°17' E 103°17'610.8
2018-Aug-14 23:57N 01°21' E 103°13'  

Dump ship's entire track history